Urtuella, Spain
Current Conditions -  °F | °C
As of 8:00 AM on Sunday 23 Nov 2014 (Local Time) from LEBB Reporting Station
Scattered Clouds Scattered Clouds  
Wind Chill: 54°   Ceiling: Unl
Heat Index: 54°   Visibility: 5mi
Dew Point: 52°   Wind: 2mph
Humidity: 94%   Direction: NA
Pressure: 29.85"   Gusts: NA
Location:  43.31°N, 3.06°W
Report Text: LEBB 230700Z VRB02KT 8000 FEW005 SCT045 12/11 Q1011 NOSIG
Loading
Personal Weather Stations






























Interactive Weather Map New forecast layout! Learn more

10-Day Weather Forecast

Advertisements
Track Severe Weather on mobile